sensor_id;sensor_type;location;lat;lon;timestamp;pressure;altitude;pressure_sealevel;temperature;humidity
61805;BME280;47725;47.912;7.356;2023-04-28T00:01:14;99041.05;;;15.57;54.09
61805;BME280;47725;47.912;7.356;2023-04-28T00:05:15;99038.31;;;15.55;54.46
61805;BME280;47725;47.912;7.356;2023-04-28T00:09:14;99034.84;;;15.53;54.43
61805;BME280;47725;47.912;7.356;2023-04-28T00:13:14;99031.63;;;15.53;55.22
61805;BME280;47725;47.912;7.356;2023-04-28T00:17:14;99028.99;;;15.51;54.76
61805;BME280;47725;47.912;7.356;2023-04-28T00:21:14;99025.76;;;15.50;54.81
61805;BME280;47725;47.912;7.356;2023-04-28T00:25:14;99021.72;;;15.49;54.34
61805;BME280;47725;47.912;7.356;2023-04-28T00:29:14;99019.98;;;15.51;53.92
61805;BME280;47725;47.912;7.356;2023-04-28T00:33:14;99018.23;;;15.53;53.80
61805;BME280;47725;47.912;7.356;2023-04-28T00:37:14;99017.99;;;15.56;53.83
61805;BME280;47725;47.912;7.356;2023-04-28T00:41:14;99016.89;;;15.58;53.74
61805;BME280;47725;47.912;7.356;2023-04-28T00:45:14;99014.94;;;15.59;53.75
61805;BME280;47725;47.912;7.356;2023-04-28T00:49:14;99015.28;;;15.59;54.29
61805;BME280;47725;47.912;7.356;2023-04-28T00:53:14;99015.56;;;15.58;54.20
61805;BME280;47725;47.912;7.356;2023-04-28T00:57:14;99013.54;;;15.57;54.11
61805;BME280;47725;47.912;7.356;2023-04-28T01:01:14;99011.58;;;15.57;54.56
61805;BME280;47725;47.912;7.356;2023-04-28T01:05:14;99010.78;;;15.56;54.89
61805;BME280;47725;47.912;7.356;2023-04-28T01:09:14;99010.86;;;15.55;54.90
61805;BME280;47725;47.912;7.356;2023-04-28T01:13:14;99010.43;;;15.52;55.60
61805;BME280;47725;47.912;7.356;2023-04-28T01:17:14;99009.63;;;15.48;55.47
61805;BME280;47725;47.912;7.356;2023-04-28T01:21:14;99008.07;;;15.47;55.25
61805;BME280;47725;47.912;7.356;2023-04-28T01:25:14;99006.75;;;15.44;56.00
61805;BME280;47725;47.912;7.356;2023-04-28T01:29:14;99004.24;;;15.43;55.26
61805;BME280;47725;47.912;7.356;2023-04-28T01:33:14;98999.41;;;15.46;55.00
61805;BME280;47725;47.912;7.356;2023-04-28T01:37:14;98993.78;;;15.51;54.73
61805;BME280;47725;47.912;7.356;2023-04-28T01:41:14;98990.45;;;15.57;54.60
61805;BME280;47725;47.912;7.356;2023-04-28T01:45:14;98987.30;;;15.62;54.74
61805;BME280;47725;47.912;7.356;2023-04-28T01:49:14;98983.91;;;15.66;55.06
61805;BME280;47725;47.912;7.356;2023-04-28T01:53:14;98981.37;;;15.67;55.59
61805;BME280;47725;47.912;7.356;2023-04-28T01:57:14;98980.63;;;15.67;55.99
61805;BME280;47725;47.912;7.356;2023-04-28T02:01:14;98979.49;;;15.66;56.26
61805;BME280;47725;47.912;7.356;2023-04-28T02:05:14;98979.21;;;15.65;56.63
61805;BME280;47725;47.912;7.356;2023-04-28T02:09:14;98979.22;;;15.64;56.55
61805;BME280;47725;47.912;7.356;2023-04-28T02:13:14;98979.11;;;15.64;56.93
61805;BME280;47725;47.912;7.356;2023-04-28T02:17:14;98979.35;;;15.63;56.99
61805;BME280;47725;47.912;7.356;2023-04-28T02:21:14;98980.54;;;15.64;57.02
61805;BME280;47725;47.912;7.356;2023-04-28T02:25:14;98982.58;;;15.65;57.19
61805;BME280;47725;47.912;7.356;2023-04-28T02:29:14;98982.37;;;15.66;57.47
61805;BME280;47725;47.912;7.356;2023-04-28T02:33:14;98980.89;;;15.66;57.54
61805;BME280;47725;47.912;7.356;2023-04-28T02:37:14;98979.97;;;15.67;57.93
61805;BME280;47725;47.912;7.356;2023-04-28T02:41:14;98979.57;;;15.67;58.18
61805;BME280;47725;47.912;7.356;2023-04-28T02:45:14;98980.97;;;15.67;58.52
61805;BME280;47725;47.912;7.356;2023-04-28T02:49:14;98983.42;;;15.67;58.53
61805;BME280;47725;47.912;7.356;2023-04-28T02:53:14;98986.10;;;15.67;58.86
61805;BME280;47725;47.912;7.356;2023-04-28T02:57:14;98990.37;;;15.66;59.12
61805;BME280;47725;47.912;7.356;2023-04-28T03:01:14;98994.76;;;15.64;59.43
61805;BME280;47725;47.912;7.356;2023-04-28T03:05:14;98999.41;;;15.62;59.67
61805;BME280;47725;47.912;7.356;2023-04-28T03:09:14;99001.19;;;15.61;59.98
61805;BME280;47725;47.912;7.356;2023-04-28T03:13:14;99002.72;;;15.58;60.86
61805;BME280;47725;47.912;7.356;2023-04-28T03:17:14;99005.20;;;15.54;60.86
61805;BME280;47725;47.912;7.356;2023-04-28T03:21:14;99004.85;;;15.51;61.82
61805;BME280;47725;47.912;7.356;2023-04-28T03:25:14;99003.93;;;15.48;61.78
61805;BME280;47725;47.912;7.356;2023-04-28T03:29:14;99002.06;;;15.45;62.03
61805;BME280;47725;47.912;7.356;2023-04-28T03:33:14;98999.75;;;15.44;62.37
61805;BME280;47725;47.912;7.356;2023-04-28T03:37:14;98998.10;;;15.41;63.63
61805;BME280;47725;47.912;7.356;2023-04-28T03:41:14;98996.19;;;15.38;65.16
61805;BME280;47725;47.912;7.356;2023-04-28T03:45:14;98992.27;;;15.34;64.95
61805;BME280;47725;47.912;7.356;2023-04-28T03:49:14;98987.97;;;15.30;65.52
61805;BME280;47725;47.912;7.356;2023-04-28T03:53:14;98983.64;;;15.25;67.72
61805;BME280;47725;47.912;7.356;2023-04-28T03:57:14;98981.17;;;15.19;68.63
61805;BME280;47725;47.912;7.356;2023-04-28T04:01:14;98978.80;;;15.13;68.73
61805;BME280;47725;47.912;7.356;2023-04-28T04:05:14;98978.89;;;15.06;70.41
61805;BME280;47725;47.912;7.356;2023-04-28T04:09:14;98978.00;;;15.01;69.99
61805;BME280;47725;47.912;7.356;2023-04-28T04:13:14;98977.94;;;14.95;71.91
61805;BME280;47725;47.912;7.356;2023-04-28T04:17:14;98977.03;;;14.89;71.97
61805;BME280;47725;47.912;7.356;2023-04-28T04:21:14;98976.39;;;14.86;70.50
61805;BME280;47725;47.912;7.356;2023-04-28T04:25:14;98974.77;;;14.86;70.23
61805;BME280;47725;47.912;7.356;2023-04-28T04:29:14;98973.46;;;14.86;70.54
61805;BME280;47725;47.912;7.356;2023-04-28T04:33:14;98972.45;;;14.85;70.41
61805;BME280;47725;47.912;7.356;2023-04-28T04:37:14;98971.08;;;14.79;73.31
61805;BME280;47725;47.912;7.356;2023-04-28T04:41:14;98970.65;;;14.72;74.11
61805;BME280;47725;47.912;7.356;2023-04-28T04:45:14;98970.22;;;14.64;74.17
61805;BME280;47725;47.912;7.356;2023-04-28T04:49:14;98969.73;;;14.58;73.88
61805;BME280;47725;47.912;7.356;2023-04-28T04:53:14;98972.24;;;14.57;73.48
61805;BME280;47725;47.912;7.356;2023-04-28T04:57:14;98975.23;;;14.58;71.98
61805;BME280;47725;47.912;7.356;2023-04-28T05:01:14;98976.44;;;14.61;72.24
61805;BME280;47725;47.912;7.356;2023-04-28T05:05:14;98977.53;;;14.63;72.12
61805;BME280;47725;47.912;7.356;2023-04-28T05:09:14;98974.87;;;14.66;71.66
61805;BME280;47725;47.912;7.356;2023-04-28T05:13:14;98974.13;;;14.69;71.80
61805;BME280;47725;47.912;7.356;2023-04-28T05:17:14;98974.24;;;14.71;71.70
61805;BME280;47725;47.912;7.356;2023-04-28T05:21:14;98974.63;;;14.71;72.80
61805;BME280;47725;47.912;7.356;2023-04-28T05:25:14;98974.30;;;14.69;74.33
61805;BME280;47725;47.912;7.356;2023-04-28T05:29:14;98972.53;;;14.67;74.67
61805;BME280;47725;47.912;7.356;2023-04-28T05:33:14;98973.13;;;14.65;75.90
61805;BME280;47725;47.912;7.356;2023-04-28T05:37:14;98975.20;;;14.64;75.61
61805;BME280;47725;47.912;7.356;2023-04-28T05:41:14;98977.94;;;14.67;73.97
61805;BME280;47725;47.912;7.356;2023-04-28T05:45:14;98979.81;;;14.72;73.26
61805;BME280;47725;47.912;7.356;2023-04-28T05:49:14;98980.47;;;14.78;73.29
61805;BME280;47725;47.912;7.356;2023-04-28T05:53:14;98979.55;;;14.83;73.05
61805;BME280;47725;47.912;7.356;2023-04-28T05:57:14;98979.32;;;14.90;73.09
61805;BME280;47725;47.912;7.356;2023-04-28T06:01:14;98979.24;;;14.96;73.17
61805;BME280;47725;47.912;7.356;2023-04-28T06:05:14;98980.22;;;15.00;74.17
61805;BME280;47725;47.912;7.356;2023-04-28T06:09:14;98981.84;;;15.02;73.92
61805;BME280;47725;47.912;7.356;2023-04-28T06:13:14;98983.91;;;15.03;75.90
61805;BME280;47725;47.912;7.356;2023-04-28T06:17:14;98984.33;;;15.04;75.95
61805;BME280;47725;47.912;7.356;2023-04-28T06:21:15;98984.98;;;15.02;76.71
61805;BME280;47725;47.912;7.356;2023-04-28T06:25:14;98986.79;;;15.01;76.45
61805;BME280;47725;47.912;7.356;2023-04-28T06:29:14;98989.04;;;15.02;75.62
61805;BME280;47725;47.912;7.356;2023-04-28T06:33:14;98992.16;;;15.00;77.10
61805;BME280;47725;47.912;7.356;2023-04-28T06:37:14;98996.83;;;14.96;77.12
61805;BME280;47725;47.912;7.356;2023-04-28T06:41:14;98999.58;;;14.94;76.95
61805;BME280;47725;47.912;7.356;2023-04-28T06:45:14;99002.00;;;14.92;77.40
61805;BME280;47725;47.912;7.356;2023-04-28T06:49:14;99003.23;;;14.93;77.12
61805;BME280;47725;47.912;7.356;2023-04-28T06:53:14;99006.66;;;14.90;77.49
61805;BME280;47725;47.912;7.356;2023-04-28T06:57:14;99009.14;;;14.88;77.82
61805;BME280;47725;47.912;7.356;2023-04-28T07:01:14;99013.17;;;14.88;77.30
61805;BME280;47725;47.912;7.356;2023-04-28T07:05:14;99015.09;;;14.87;78.39
61805;BME280;47725;47.912;7.356;2023-04-28T07:09:14;99017.46;;;14.86;78.18
61805;BME280;47725;47.912;7.356;2023-04-28T07:13:14;99018.45;;;14.87;77.90
61805;BME280;47725;47.912;7.356;2023-04-28T07:17:14;99019.62;;;14.87;77.95
61805;BME280;47725;47.912;7.356;2023-04-28T07:21:14;99021.56;;;14.87;78.18
61805;BME280;47725;47.912;7.356;2023-04-28T07:25:14;99022.99;;;14.90;77.43
61805;BME280;47725;47.912;7.356;2023-04-28T07:29:14;99025.29;;;14.95;76.84
61805;BME280;47725;47.912;7.356;2023-04-28T07:33:14;99028.81;;;15.01;77.19
61805;BME280;47725;47.912;7.356;2023-04-28T07:37:14;99031.84;;;15.08;76.78
61805;BME280;47725;47.912;7.356;2023-04-28T07:41:15;99034.05;;;15.14;76.94
61805;BME280;47725;47.912;7.356;2023-04-28T07:45:14;99034.95;;;15.17;77.84
61805;BME280;47725;47.912;7.356;2023-04-28T07:49:14;99036.42;;;15.23;77.29
61805;BME280;47725;47.912;7.356;2023-04-28T07:53:14;99038.08;;;15.31;76.39
61805;BME280;47725;47.912;7.356;2023-04-28T07:57:14;99039.71;;;15.38;76.32
61805;BME280;47725;47.912;7.356;2023-04-28T08:01:14;99041.89;;;15.46;76.28
61805;BME280;47725;47.912;7.356;2023-04-28T08:05:14;99044.09;;;15.51;76.99
61805;BME280;47725;47.912;7.356;2023-04-28T08:09:14;99047.30;;;15.54;77.31
61805;BME280;47725;47.912;7.356;2023-04-28T08:13:14;99051.50;;;15.55;77.99
61805;BME280;47725;47.912;7.356;2023-04-28T08:17:14;99057.31;;;15.55;78.83
61805;BME280;47725;47.912;7.356;2023-04-28T08:21:14;99064.57;;;15.53;79.17
61805;BME280;47725;47.912;7.356;2023-04-28T08:25:14;99071.33;;;15.53;79.17
61805;BME280;47725;47.912;7.356;2023-04-28T08:29:14;99076.51;;;15.52;79.36
61805;BME280;47725;47.912;7.356;2023-04-28T08:33:14;99078.16;;;15.53;79.34
61805;BME280;47725;47.912;7.356;2023-04-28T08:37:14;99079.38;;;15.58;78.71
61805;BME280;47725;47.912;7.356;2023-04-28T08:41:14;99079.46;;;15.64;78.62
61805;BME280;47725;47.912;7.356;2023-04-28T08:45:14;99079.81;;;15.68;79.31
61805;BME280;47725;47.912;7.356;2023-04-28T08:49:14;99080.99;;;15.75;78.25
61805;BME280;47725;47.912;7.356;2023-04-28T08:53:14;99085.02;;;15.82;78.18
61805;BME280;47725;47.912;7.356;2023-04-28T08:57:14;99087.07;;;15.88;77.84
61805;BME280;47725;47.912;7.356;2023-04-28T09:01:14;99088.03;;;15.92;78.30
61805;BME280;47725;47.912;7.356;2023-04-28T09:05:14;99091.67;;;15.95;78.60
61805;BME280;47725;47.912;7.356;2023-04-28T09:09:23;99094.89;;;15.98;78.57
61805;BME280;47725;47.912;7.356;2023-04-28T09:13:25;99097.83;;;15.99;79.04
61805;BME280;47725;47.912;7.356;2023-04-28T09:17:14;99101.78;;;16.01;78.97
61805;BME280;47725;47.912;7.356;2023-04-28T09:21:14;99106.61;;;16.06;78.53
61805;BME280;47725;47.912;7.356;2023-04-28T09:25:14;99109.20;;;16.10;78.51
61805;BME280;47725;47.912;7.356;2023-04-28T09:29:13;99110.22;;;16.13;78.88
61805;BME280;47725;47.912;7.356;2023-04-28T09:33:13;99108.65;;;16.14;79.24
61805;BME280;47725;47.912;7.356;2023-04-28T09:37:17;99107.05;;;16.16;79.49
61805;BME280;47725;47.912;7.356;2023-04-28T09:41:13;99106.17;;;16.20;79.11
61805;BME280;47725;47.912;7.356;2023-04-28T09:45:14;99108.72;;;16.27;78.33
61805;BME280;47725;47.912;7.356;2023-04-28T09:49:13;99110.80;;;16.35;77.70
61805;BME280;47725;47.912;7.356;2023-04-28T09:53:13;99112.03;;;16.44;77.85
61805;BME280;47725;47.912;7.356;2023-04-28T09:57:13;99111.30;;;16.52;77.29
61805;BME280;47725;47.912;7.356;2023-04-28T10:01:13;99111.63;;;16.65;77.14
61805;BME280;47725;47.912;7.356;2023-04-28T10:05:15;99109.26;;;16.80;76.90
61805;BME280;47725;47.912;7.356;2023-04-28T10:09:13;99109.03;;;17.01;75.92
61805;BME280;47725;47.912;7.356;2023-04-28T10:13:14;99105.65;;;17.23;74.87
61805;BME280;47725;47.912;7.356;2023-04-28T10:17:13;99102.21;;;17.46;74.55
61805;BME280;47725;47.912;7.356;2023-04-28T10:21:15;99097.96;;;17.67;73.80
61805;BME280;47725;47.912;7.356;2023-04-28T10:25:24;99097.44;;;17.90;73.75
61805;BME280;47725;47.912;7.356;2023-04-28T10:29:13;99098.25;;;18.12;72.72
61805;BME280;47725;47.912;7.356;2023-04-28T10:37:14;99098.16;;;18.39;71.16
61805;BME280;47725;47.912;7.356;2023-04-28T10:41:30;99097.04;;;18.52;71.06
61805;BME280;47725;47.912;7.356;2023-04-28T10:45:13;99096.20;;;18.62;70.80
61805;BME280;47725;47.912;7.356;2023-04-28T10:49:13;99096.39;;;18.72;70.00
61805;BME280;47725;47.912;7.356;2023-04-28T10:53:13;99094.65;;;18.82;69.90
61805;BME280;47725;47.912;7.356;2023-04-28T10:57:14;99093.82;;;18.91;68.77
61805;BME280;47725;47.912;7.356;2023-04-28T11:05:14;99097.17;;;19.05;69.71
61805;BME280;47725;47.912;7.356;2023-04-28T11:13:28;99099.53;;;19.10;67.97
61805;BME280;47725;47.912;7.356;2023-04-28T11:17:13;99098.74;;;19.14;68.41
61805;BME280;47725;47.912;7.356;2023-04-28T11:21:13;99096.73;;;19.20;67.80
61805;BME280;47725;47.912;7.356;2023-04-28T11:25:13;99096.06;;;19.24;67.72
61805;BME280;47725;47.912;7.356;2023-04-28T11:29:13;99094.86;;;19.24;67.30
61805;BME280;47725;47.912;7.356;2023-04-28T11:33:13;99094.00;;;19.24;67.46
61805;BME280;47725;47.912;7.356;2023-04-28T11:37:14;99091.82;;;19.23;67.63
61805;BME280;47725;47.912;7.356;2023-04-28T11:41:13;99087.93;;;19.23;67.66
61805;BME280;47725;47.912;7.356;2023-04-28T11:45:13;99086.77;;;19.21;67.76
61805;BME280;47725;47.912;7.356;2023-04-28T11:49:13;99082.56;;;19.23;67.64
61805;BME280;47725;47.912;7.356;2023-04-28T11:53:13;99078.02;;;19.27;67.55
61805;BME280;47725;47.912;7.356;2023-04-28T11:57:16;99074.34;;;19.31;67.62
61805;BME280;47725;47.912;7.356;2023-04-28T12:01:13;99071.75;;;19.37;67.13
61805;BME280;47725;47.912;7.356;2023-04-28T12:05:13;99071.53;;;19.37;66.10
61805;BME280;47725;47.912;7.356;2023-04-28T12:09:17;99069.93;;;19.38;67.02
61805;BME280;47725;47.912;7.356;2023-04-28T12:13:14;99067.21;;;19.43;66.85
61805;BME280;47725;47.912;7.356;2023-04-28T12:17:23;99064.12;;;19.48;66.27
61805;BME280;47725;47.912;7.356;2023-04-28T12:21:19;99060.74;;;19.50;66.46
61805;BME280;47725;47.912;7.356;2023-04-28T12:25:14;99055.89;;;19.52;66.31
61805;BME280;47725;47.912;7.356;2023-04-28T12:33:22;99046.07;;;19.55;65.78
61805;BME280;47725;47.912;7.356;2023-04-28T12:37:13;99044.76;;;19.55;65.96
61805;BME280;47725;47.912;7.356;2023-04-28T12:41:13;99043.28;;;19.57;66.39
61805;BME280;47725;47.912;7.356;2023-04-28T12:45:13;99041.79;;;19.60;66.38
61805;BME280;47725;47.912;7.356;2023-04-28T12:49:13;99039.78;;;19.65;66.50
61805;BME280;47725;47.912;7.356;2023-04-28T12:53:13;99039.26;;;19.69;66.38
61805;BME280;47725;47.912;7.356;2023-04-28T12:57:14;99036.67;;;19.75;65.71
61805;BME280;47725;47.912;7.356;2023-04-28T13:01:13;99033.91;;;19.80;65.66
61805;BME280;47725;47.912;7.356;2023-04-28T13:05:14;99031.70;;;19.86;65.35
61805;BME280;47725;47.912;7.356;2023-04-28T13:09:13;99029.24;;;19.91;64.67
61805;BME280;47725;47.912;7.356;2023-04-28T13:13:13;99025.27;;;19.93;63.87
61805;BME280;47725;47.912;7.356;2023-04-28T13:17:13;99024.81;;;19.96;64.68
61805;BME280;47725;47.912;7.356;2023-04-28T13:21:13;99024.79;;;19.99;64.42
61805;BME280;47725;47.912;7.356;2023-04-28T13:25:13;99023.16;;;19.98;64.49
61805;BME280;47725;47.912;7.356;2023-04-28T13:29:13;99021.84;;;19.99;64.46
61805;BME280;47725;47.912;7.356;2023-04-28T13:33:13;99019.62;;;19.99;65.01
61805;BME280;47725;47.912;7.356;2023-04-28T13:37:13;99018.39;;;19.99;64.94
61805;BME280;47725;47.912;7.356;2023-04-28T13:41:14;99015.41;;;19.96;65.25
61805;BME280;47725;47.912;7.356;2023-04-28T13:45:14;99013.29;;;19.97;65.30
61805;BME280;47725;47.912;7.356;2023-04-28T13:49:13;99008.98;;;19.97;65.31
61805;BME280;47725;47.912;7.356;2023-04-28T13:53:13;99003.30;;;19.95;65.54
61805;BME280;47725;47.912;7.356;2023-04-28T13:57:13;98998.44;;;19.97;65.46
61805;BME280;47725;47.912;7.356;2023-04-28T14:01:13;98992.63;;;19.98;66.08
61805;BME280;47725;47.912;7.356;2023-04-28T14:05:14;98986.70;;;19.98;66.22
61805;BME280;47725;47.912;7.356;2023-04-28T14:09:13;98982.44;;;19.95;66.82
61805;BME280;47725;47.912;7.356;2023-04-28T14:13:13;98979.58;;;19.92;66.86
61805;BME280;47725;47.912;7.356;2023-04-28T14:17:13;98976.23;;;19.89;67.03
61805;BME280;47725;47.912;7.356;2023-04-28T14:21:13;98973.89;;;19.88;66.98
61805;BME280;47725;47.912;7.356;2023-04-28T14:25:13;98971.11;;;19.91;66.26
61805;BME280;47725;47.912;7.356;2023-04-28T14:29:13;98967.28;;;19.97;65.82
61805;BME280;47725;47.912;7.356;2023-04-28T14:33:13;98965.81;;;20.05;65.52
61805;BME280;47725;47.912;7.356;2023-04-28T14:37:13;98963.62;;;20.08;65.21
61805;BME280;47725;47.912;7.356;2023-04-28T14:41:13;98959.42;;;20.13;65.52
61805;BME280;47725;47.912;7.356;2023-04-28T14:45:13;98955.11;;;20.16;65.49
61805;BME280;47725;47.912;7.356;2023-04-28T14:49:13;98952.84;;;20.16;65.91
61805;BME280;47725;47.912;7.356;2023-04-28T14:53:13;98949.78;;;20.18;65.64
61805;BME280;47725;47.912;7.356;2023-04-28T14:57:13;98946.51;;;20.19;65.77
61805;BME280;47725;47.912;7.356;2023-04-28T15:01:13;98941.83;;;20.23;65.45
61805;BME280;47725;47.912;7.356;2023-04-28T15:05:13;98938.34;;;20.28;65.39
61805;BME280;47725;47.912;7.356;2023-04-28T15:09:13;98935.38;;;20.37;64.35
61805;BME280;47725;47.912;7.356;2023-04-28T15:13:13;98932.00;;;20.46;63.90
61805;BME280;47725;47.912;7.356;2023-04-28T15:17:13;98929.53;;;20.56;63.71
61805;BME280;47725;47.912;7.356;2023-04-28T15:21:13;98926.79;;;20.66;62.79
61805;BME280;47725;47.912;7.356;2023-04-28T15:25:13;98922.93;;;20.74;61.98
61805;BME280;47725;47.912;7.356;2023-04-28T15:29:13;98921.06;;;20.81;62.05
61805;BME280;47725;47.912;7.356;2023-04-28T15:33:13;98917.14;;;20.84;62.76
61805;BME280;47725;47.912;7.356;2023-04-28T15:41:13;98913.76;;;20.92;62.76
61805;BME280;47725;47.912;7.356;2023-04-28T15:45:14;98912.01;;;20.91;62.48
61805;BME280;47725;47.912;7.356;2023-04-28T15:49:13;98911.05;;;20.90;62.20
61805;BME280;47725;47.912;7.356;2023-04-28T15:53:13;98911.11;;;20.89;61.90
61805;BME280;47725;47.912;7.356;2023-04-28T15:57:13;98909.63;;;20.91;62.17
61805;BME280;47725;47.912;7.356;2023-04-28T16:01:13;98908.79;;;20.96;61.08
61805;BME280;47725;47.912;7.356;2023-04-28T16:05:13;98907.56;;;20.99;61.13
61805;BME280;47725;47.912;7.356;2023-04-28T16:09:13;98907.08;;;21.03;60.62
61805;BME280;47725;47.912;7.356;2023-04-28T16:13:13;98905.61;;;21.10;60.24
61805;BME280;47725;47.912;7.356;2023-04-28T16:17:13;98906.34;;;21.15;59.85
61805;BME280;47725;47.912;7.356;2023-04-28T16:21:13;98906.17;;;21.15;60.19
61805;BME280;47725;47.912;7.356;2023-04-28T16:25:13;98906.92;;;21.11;60.51
61805;BME280;47725;47.912;7.356;2023-04-28T16:29:13;98908.76;;;21.08;61.10
61805;BME280;47725;47.912;7.356;2023-04-28T16:33:13;98911.52;;;21.07;60.67
61805;BME280;47725;47.912;7.356;2023-04-28T16:37:13;98912.25;;;21.04;60.64
61805;BME280;47725;47.912;7.356;2023-04-28T16:41:13;98910.94;;;21.05;59.55
61805;BME280;47725;47.912;7.356;2023-04-28T16:45:13;98907.42;;;21.07;59.67
61805;BME280;47725;47.912;7.356;2023-04-28T16:49:13;98904.60;;;21.11;58.97
61805;BME280;47725;47.912;7.356;2023-04-28T16:53:13;98901.56;;;21.16;59.10
61805;BME280;47725;47.912;7.356;2023-04-28T16:57:13;98899.30;;;21.19;59.31
61805;BME280;47725;47.912;7.356;2023-04-28T17:01:13;98898.63;;;21.19;58.93
61805;BME280;47725;47.912;7.356;2023-04-28T17:05:14;98898.95;;;21.18;59.01
61805;BME280;47725;47.912;7.356;2023-04-28T17:09:13;98898.32;;;21.17;59.31
61805;BME280;47725;47.912;7.356;2023-04-28T17:13:13;98896.95;;;21.12;59.67
61805;BME280;47725;47.912;7.356;2023-04-28T17:17:13;98895.72;;;21.06;59.84
61805;BME280;47725;47.912;7.356;2023-04-28T17:21:13;98896.51;;;21.01;60.00
61805;BME280;47725;47.912;7.356;2023-04-28T17:25:13;98897.60;;;20.96;59.81
61805;BME280;47725;47.912;7.356;2023-04-28T17:29:13;98899.05;;;20.91;60.12
61805;BME280;47725;47.912;7.356;2023-04-28T17:33:13;98899.75;;;20.86;60.30
61805;BME280;47725;47.912;7.356;2023-04-28T17:37:13;98900.70;;;20.81;60.69
61805;BME280;47725;47.912;7.356;2023-04-28T17:41:13;98903.45;;;20.72;63.60
61805;BME280;47725;47.912;7.356;2023-04-28T17:45:13;98905.22;;;20.60;63.91
61805;BME280;47725;47.912;7.356;2023-04-28T17:49:13;98907.36;;;20.44;64.82
61805;BME280;47725;47.912;7.356;2023-04-28T17:53:13;98910.94;;;20.29;65.57
61805;BME280;47725;47.912;7.356;2023-04-28T17:57:13;98913.28;;;20.13;66.32
61805;BME280;47725;47.912;7.356;2023-04-28T18:01:13;98915.20;;;20.00;66.20
61805;BME280;47725;47.912;7.356;2023-04-28T18:05:13;98919.81;;;19.88;66.36
61805;BME280;47725;47.912;7.356;2023-04-28T18:09:13;98922.60;;;19.79;66.49
61805;BME280;47725;47.912;7.356;2023-04-28T18:13:13;98923.72;;;19.70;66.73
61805;BME280;47725;47.912;7.356;2023-04-28T18:17:13;98924.42;;;19.62;66.98
61805;BME280;47725;47.912;7.356;2023-04-28T18:21:13;98926.00;;;19.55;66.72
61805;BME280;47725;47.912;7.356;2023-04-28T18:25:13;98928.22;;;19.48;67.05
61805;BME280;47725;47.912;7.356;2023-04-28T18:29:13;98930.42;;;19.44;66.22
61805;BME280;47725;47.912;7.356;2023-04-28T18:33:13;98932.59;;;19.41;66.40
61805;BME280;47725;47.912;7.356;2023-04-28T18:37:13;98933.72;;;19.36;66.68
61805;BME280;47725;47.912;7.356;2023-04-28T18:41:14;98934.63;;;19.29;67.69
61805;BME280;47725;47.912;7.356;2023-04-28T18:45:13;98936.49;;;19.20;68.15
61805;BME280;47725;47.912;7.356;2023-04-28T18:49:13;98941.06;;;19.11;69.10
61805;BME280;47725;47.912;7.356;2023-04-28T18:53:13;98945.83;;;19.04;69.00
61805;BME280;47725;47.912;7.356;2023-04-28T18:57:14;98948.24;;;19.00;68.06
61805;BME280;47725;47.912;7.356;2023-04-28T19:01:13;98948.47;;;18.98;67.92
61805;BME280;47725;47.912;7.356;2023-04-28T19:05:13;98950.56;;;18.95;68.03
61805;BME280;47725;47.912;7.356;2023-04-28T19:09:13;98954.94;;;18.91;68.29
61805;BME280;47725;47.912;7.356;2023-04-28T19:13:13;98958.99;;;18.88;68.01
61805;BME280;47725;47.912;7.356;2023-04-28T19:17:13;98963.56;;;18.85;67.87
61805;BME280;47725;47.912;7.356;2023-04-28T19:21:13;98971.81;;;18.82;68.02
61805;BME280;47725;47.912;7.356;2023-04-28T19:25:13;98977.95;;;18.78;68.02
61805;BME280;47725;47.912;7.356;2023-04-28T19:29:13;98983.99;;;18.74;68.03
61805;BME280;47725;47.912;7.356;2023-04-28T19:33:13;98989.64;;;18.71;68.01
61805;BME280;47725;47.912;7.356;2023-04-28T19:37:13;98994.10;;;18.69;67.92
61805;BME280;47725;47.912;7.356;2023-04-28T19:41:13;98997.58;;;18.65;68.04
61805;BME280;47725;47.912;7.356;2023-04-28T19:45:13;99002.98;;;18.61;68.11
61805;BME280;47725;47.912;7.356;2023-04-28T19:49:13;99006.37;;;18.57;68.32
61805;BME280;47725;47.912;7.356;2023-04-28T19:53:13;99007.84;;;18.52;68.56
61805;BME280;47725;47.912;7.356;2023-04-28T19:57:13;99009.89;;;18.45;68.69
61805;BME280;47725;47.912;7.356;2023-04-28T20:01:13;99011.89;;;18.38;68.71
61805;BME280;47725;47.912;7.356;2023-04-28T20:05:13;99013.92;;;18.31;69.26
61805;BME280;47725;47.912;7.356;2023-04-28T20:09:13;99016.91;;;18.25;69.17
61805;BME280;47725;47.912;7.356;2023-04-28T20:13:13;99020.09;;;18.19;69.34
61805;BME280;47725;47.912;7.356;2023-04-28T20:17:13;99024.62;;;18.13;69.63
61805;BME280;47725;47.912;7.356;2023-04-28T20:21:13;99028.60;;;18.07;70.48
61805;BME280;47725;47.912;7.356;2023-04-28T20:25:13;99030.59;;;18.02;71.30
61805;BME280;47725;47.912;7.356;2023-04-28T20:29:13;99032.19;;;17.99;70.20
61805;BME280;47725;47.912;7.356;2023-04-28T20:33:13;99035.08;;;17.98;70.06
61805;BME280;47725;47.912;7.356;2023-04-28T20:37:13;99037.16;;;17.96;70.42
61805;BME280;47725;47.912;7.356;2023-04-28T20:41:13;99039.04;;;17.94;70.64
61805;BME280;47725;47.912;7.356;2023-04-28T20:45:13;99040.39;;;17.93;70.40
61805;BME280;47725;47.912;7.356;2023-04-28T20:49:13;99041.29;;;17.91;70.46
61805;BME280;47725;47.912;7.356;2023-04-28T20:53:13;99041.88;;;17.89;70.61
61805;BME280;47725;47.912;7.356;2023-04-28T20:57:13;99042.85;;;17.86;70.47
61805;BME280;47725;47.912;7.356;2023-04-28T21:01:13;99044.53;;;17.84;70.34
61805;BME280;47725;47.912;7.356;2023-04-28T21:05:13;99046.25;;;17.81;70.29
61805;BME280;47725;47.912;7.356;2023-04-28T21:09:13;99046.90;;;17.78;70.20
61805;BME280;47725;47.912;7.356;2023-04-28T21:13:13;99047.94;;;17.75;70.51
61805;BME280;47725;47.912;7.356;2023-04-28T21:17:13;99048.13;;;17.73;70.48
61805;BME280;47725;47.912;7.356;2023-04-28T21:21:13;99049.44;;;17.71;70.42
61805;BME280;47725;47.912;7.356;2023-04-28T21:25:13;99050.31;;;17.69;70.30
61805;BME280;47725;47.912;7.356;2023-04-28T21:29:13;99050.13;;;17.66;70.39